Main page
Satellite images 10-day forecastsClimateMarine weather Cyclones Lightning AirportsFAQ Newsletter About
Weather : Europe Africa North America South America Asia Australia-Oceania Others
Languages Contact

Baia Mare, Romania

Baia Mare Airport

latitude: 47-40N, longitude: 023-35E, elevation: 218 m


METAR: LRBM 271630Z 31002KT CAVOK 09/05 Q1014
TAF: LRBM 271400Z 2715/2724 VRB04KT 9999 SCT020

Time: 18:46 (16:46 UTC)

Current weather observation

The report was made 16 minutes ago, at 16:30 UTC
Wind 2 kt from the Northwest
Temperature 9°C
Humidity 76%
Pressure 1014 hPa
Visibility 10 km or more
no clouds below 1500 m and no cumulonimbus

Change units

Forecast

The report was made 2 hours and 46 minutes ago, at 14:00 UTC
Forecast valid from 27 at 15 UTC to 27 at 24 UTC
Wind 4 kt from variable directions
Visibility 10 km or more
Scattered clouds at a height of 2000 ft
The information on this site is subject to a disclaimer
Weather : Europe Africa North America South America Asia Australia-Oceania Others
Satellite images 10-day forecastsClimateMarine weather Cyclones Lightning AirportsFAQ Languages Contact Newsletter About